sensor_id;sensor_type;location;lat;lon;timestamp;P1;durP1;ratioP1;P2;durP2;ratioP2
35578;SDS011;21687;48.900;9.188;2023-01-16T00:01:24;4.40;;;1.73;;
35578;SDS011;21687;48.900;9.188;2023-01-16T00:03:52;2.87;;;1.60;;
35578;SDS011;21687;48.900;9.188;2023-01-16T00:06:18;2.17;;;1.73;;
35578;SDS011;21687;48.900;9.188;2023-01-16T00:08:45;3.27;;;1.70;;
35578;SDS011;21687;48.900;9.188;2023-01-16T00:11:13;3.90;;;1.40;;
35578;SDS011;21687;48.900;9.188;2023-01-16T00:13:40;4.37;;;1.53;;
35578;SDS011;21687;48.900;9.188;2023-01-16T00:16:06;3.23;;;1.50;;
35578;SDS011;21687;48.900;9.188;2023-01-16T00:18:33;1.83;;;1.20;;
35578;SDS011;21687;48.900;9.188;2023-01-16T00:20:59;4.37;;;1.30;;
35578;SDS011;21687;48.900;9.188;2023-01-16T00:23:26;6.37;;;1.43;;
35578;SDS011;21687;48.900;9.188;2023-01-16T00:25:52;4.20;;;1.30;;
35578;SDS011;21687;48.900;9.188;2023-01-16T00:28:18;4.53;;;1.30;;
35578;SDS011;21687;48.900;9.188;2023-01-16T00:30:45;3.13;;;1.20;;
35578;SDS011;21687;48.900;9.188;2023-01-16T00:33:11;2.97;;;1.20;;
35578;SDS011;21687;48.900;9.188;2023-01-16T00:35:37;1.67;;;1.20;;
35578;SDS011;21687;48.900;9.188;2023-01-16T00:38:04;2.43;;;1.13;;
35578;SDS011;21687;48.900;9.188;2023-01-16T00:40:30;3.67;;;1.27;;
35578;SDS011;21687;48.900;9.188;2023-01-16T00:42:56;2.17;;;1.00;;
35578;SDS011;21687;48.900;9.188;2023-01-16T00:45:22;1.57;;;1.03;;
35578;SDS011;21687;48.900;9.188;2023-01-16T00:47:49;6.20;;;1.40;;
35578;SDS011;21687;48.900;9.188;2023-01-16T00:50:15;4.53;;;1.50;;
35578;SDS011;21687;48.900;9.188;2023-01-16T00:52:41;4.37;;;1.33;;
35578;SDS011;21687;48.900;9.188;2023-01-16T00:55:08;2.13;;;1.17;;
35578;SDS011;21687;48.900;9.188;2023-01-16T00:57:34;1.77;;;1.00;;
35578;SDS011;21687;48.900;9.188;2023-01-16T01:00:00;3.50;;;1.03;;
35578;SDS011;21687;48.900;9.188;2023-01-16T01:02:26;1.83;;;0.83;;
35578;SDS011;21687;48.900;9.188;2023-01-16T01:04:53;4.37;;;1.07;;
35578;SDS011;21687;48.900;9.188;2023-01-16T01:07:19;1.50;;;1.00;;
35578;SDS011;21687;48.900;9.188;2023-01-16T01:09:45;4.27;;;1.33;;
35578;SDS011;21687;48.900;9.188;2023-01-16T01:12:11;3.77;;;1.20;;
35578;SDS011;21687;48.900;9.188;2023-01-16T01:14:38;4.93;;;1.20;;
35578;SDS011;21687;48.900;9.188;2023-01-16T01:17:04;1.80;;;1.00;;
35578;SDS011;21687;48.900;9.188;2023-01-16T01:19:30;3.90;;;1.23;;
35578;SDS011;21687;48.900;9.188;2023-01-16T01:21:56;4.57;;;1.40;;
35578;SDS011;21687;48.900;9.188;2023-01-16T01:24:22;1.93;;;0.87;;
35578;SDS011;21687;48.900;9.188;2023-01-16T01:26:49;4.20;;;1.23;;
35578;SDS011;21687;48.900;9.188;2023-01-16T01:29:15;0.97;;;0.90;;
35578;SDS011;21687;48.900;9.188;2023-01-16T01:31:41;0.83;;;0.83;;
35578;SDS011;21687;48.900;9.188;2023-01-16T01:34:07;1.70;;;1.20;;
35578;SDS011;21687;48.900;9.188;2023-01-16T01:36:34;3.20;;;1.20;;
35578;SDS011;21687;48.900;9.188;2023-01-16T01:39:00;2.33;;;1.30;;
35578;SDS011;21687;48.900;9.188;2023-01-16T01:41:26;2.10;;;1.13;;
35578;SDS011;21687;48.900;9.188;2023-01-16T01:43:54;1.37;;;1.20;;
35578;SDS011;21687;48.900;9.188;2023-01-16T01:46:26;2.73;;;1.20;;
35578;SDS011;21687;48.900;9.188;2023-01-16T01:49:13;2.80;;;1.13;;
35578;SDS011;21687;48.900;9.188;2023-01-16T01:51:46;3.00;;;1.30;;
35578;SDS011;21687;48.900;9.188;2023-01-16T01:54:17;3.77;;;1.00;;
35578;SDS011;21687;48.900;9.188;2023-01-16T01:56:54;6.37;;;1.30;;
35578;SDS011;21687;48.900;9.188;2023-01-16T01:59:28;2.00;;;1.00;;
35578;SDS011;21687;48.900;9.188;2023-01-16T02:01:57;1.93;;;1.10;;
35578;SDS011;21687;48.900;9.188;2023-01-16T02:04:27;2.67;;;1.53;;
35578;SDS011;21687;48.900;9.188;2023-01-16T02:06:58;2.43;;;1.23;;
35578;SDS011;21687;48.900;9.188;2023-01-16T02:09:31;2.90;;;1.23;;
35578;SDS011;21687;48.900;9.188;2023-01-16T02:12:02;1.30;;;1.10;;
35578;SDS011;21687;48.900;9.188;2023-01-16T02:14:37;3.97;;;1.77;;
35578;SDS011;21687;48.900;9.188;2023-01-16T02:17:07;3.90;;;1.30;;
35578;SDS011;21687;48.900;9.188;2023-01-16T02:25:37;3.27;;;1.30;;
35578;SDS011;21687;48.900;9.188;2023-01-16T02:28:23;1.50;;;1.13;;
35578;SDS011;21687;48.900;9.188;2023-01-16T02:31:15;4.73;;;1.20;;
35578;SDS011;21687;48.900;9.188;2023-01-16T02:34:06;7.27;;;1.40;;
35578;SDS011;21687;48.900;9.188;2023-01-16T02:37:47;3.30;;;1.33;;
35578;SDS011;21687;48.900;9.188;2023-01-16T02:45:29;1.70;;;1.20;;
35578;SDS011;21687;48.900;9.188;2023-01-16T02:48:03;2.27;;;1.00;;
35578;SDS011;21687;48.900;9.188;2023-01-16T02:50:51;3.20;;;1.17;;
35578;SDS011;21687;48.900;9.188;2023-01-16T02:53:41;2.13;;;1.00;;
35578;SDS011;21687;48.900;9.188;2023-01-16T02:56:15;3.50;;;1.20;;
35578;SDS011;21687;48.900;9.188;2023-01-16T02:58:56;6.53;;;2.67;;
35578;SDS011;21687;48.900;9.188;2023-01-16T03:01:23;2.03;;;1.07;;
35578;SDS011;21687;48.900;9.188;2023-01-16T03:03:50;3.00;;;1.47;;
35578;SDS011;21687;48.900;9.188;2023-01-16T03:06:41;5.80;;;1.60;;
35578;SDS011;21687;48.900;9.188;2023-01-16T03:09:24;5.47;;;1.77;;
35578;SDS011;21687;48.900;9.188;2023-01-16T03:20:28;2.03;;;1.40;;
35578;SDS011;21687;48.900;9.188;2023-01-16T03:24:02;1.53;;;1.20;;
35578;SDS011;21687;48.900;9.188;2023-01-16T03:26:20;5.43;;;1.50;;
35578;SDS011;21687;48.900;9.188;2023-01-16T03:34:00;1.23;;;1.10;;
35578;SDS011;21687;48.900;9.188;2023-01-16T03:36:45;6.20;;;1.20;;
35578;SDS011;21687;48.900;9.188;2023-01-16T03:39:21;2.17;;;1.17;;
35578;SDS011;21687;48.900;9.188;2023-01-16T03:41:50;3.20;;;1.27;;
35578;SDS011;21687;48.900;9.188;2023-01-16T03:44:21;3.30;;;1.50;;
35578;SDS011;21687;48.900;9.188;2023-01-16T03:47:00;3.20;;;1.10;;
35578;SDS011;21687;48.900;9.188;2023-01-16T03:49:31;3.43;;;1.10;;
35578;SDS011;21687;48.900;9.188;2023-01-16T03:52:01;2.50;;;1.07;;
35578;SDS011;21687;48.900;9.188;2023-01-16T03:57:30;3.33;;;1.30;;
35578;SDS011;21687;48.900;9.188;2023-01-16T04:00:18;3.63;;;1.23;;
35578;SDS011;21687;48.900;9.188;2023-01-16T04:02:52;2.00;;;1.10;;
35578;SDS011;21687;48.900;9.188;2023-01-16T04:05:29;2.20;;;1.20;;
35578;SDS011;21687;48.900;9.188;2023-01-16T04:08:03;3.33;;;1.07;;
35578;SDS011;21687;48.900;9.188;2023-01-16T04:10:37;2.37;;;1.20;;
35578;SDS011;21687;48.900;9.188;2023-01-16T04:13:08;1.93;;;1.00;;
35578;SDS011;21687;48.900;9.188;2023-01-16T04:15:38;4.67;;;1.50;;
35578;SDS011;21687;48.900;9.188;2023-01-16T04:18:07;3.80;;;1.40;;
35578;SDS011;21687;48.900;9.188;2023-01-16T04:20:34;1.83;;;1.50;;
35578;SDS011;21687;48.900;9.188;2023-01-16T04:23:03;6.33;;;1.80;;
35578;SDS011;21687;48.900;9.188;2023-01-16T04:25:29;4.10;;;1.20;;
35578;SDS011;21687;48.900;9.188;2023-01-16T04:27:55;4.00;;;1.43;;
35578;SDS011;21687;48.900;9.188;2023-01-16T04:30:22;3.30;;;1.43;;
35578;SDS011;21687;48.900;9.188;2023-01-16T04:32:48;3.30;;;1.50;;
35578;SDS011;21687;48.900;9.188;2023-01-16T04:35:14;2.53;;;1.17;;
35578;SDS011;21687;48.900;9.188;2023-01-16T04:37:40;2.13;;;1.73;;
35578;SDS011;21687;48.900;9.188;2023-01-16T04:40:07;2.23;;;1.40;;
35578;SDS011;21687;48.900;9.188;2023-01-16T04:42:34;2.17;;;1.43;;
35578;SDS011;21687;48.900;9.188;2023-01-16T04:45:01;2.73;;;1.27;;
35578;SDS011;21687;48.900;9.188;2023-01-16T04:47:28;2.73;;;1.30;;
35578;SDS011;21687;48.900;9.188;2023-01-16T04:49:54;5.63;;;1.30;;
35578;SDS011;21687;48.900;9.188;2023-01-16T04:52:20;2.63;;;1.50;;
35578;SDS011;21687;48.900;9.188;2023-01-16T04:54:47;4.13;;;1.97;;
35578;SDS011;21687;48.900;9.188;2023-01-16T04:57:13;3.13;;;1.50;;
35578;SDS011;21687;48.900;9.188;2023-01-16T04:59:39;2.47;;;1.20;;
35578;SDS011;21687;48.900;9.188;2023-01-16T05:02:05;2.33;;;1.47;;
35578;SDS011;21687;48.900;9.188;2023-01-16T05:04:32;1.30;;;1.20;;
35578;SDS011;21687;48.900;9.188;2023-01-16T05:06:58;3.63;;;1.40;;
35578;SDS011;21687;48.900;9.188;2023-01-16T05:09:24;2.23;;;1.33;;
35578;SDS011;21687;48.900;9.188;2023-01-16T05:11:50;2.17;;;1.40;;
35578;SDS011;21687;48.900;9.188;2023-01-16T05:14:17;3.20;;;1.30;;
35578;SDS011;21687;48.900;9.188;2023-01-16T05:16:43;2.80;;;1.57;;
35578;SDS011;21687;48.900;9.188;2023-01-16T05:19:09;2.13;;;1.50;;
35578;SDS011;21687;48.900;9.188;2023-01-16T05:21:36;2.60;;;1.33;;
35578;SDS011;21687;48.900;9.188;2023-01-16T05:24:02;2.50;;;1.37;;
35578;SDS011;21687;48.900;9.188;2023-01-16T05:26:29;2.63;;;1.67;;
35578;SDS011;21687;48.900;9.188;2023-01-16T05:28:55;4.13;;;1.60;;
35578;SDS011;21687;48.900;9.188;2023-01-16T05:31:22;4.13;;;1.60;;
35578;SDS011;21687;48.900;9.188;2023-01-16T05:33:49;5.63;;;1.70;;
35578;SDS011;21687;48.900;9.188;2023-01-16T05:36:15;2.13;;;1.47;;
35578;SDS011;21687;48.900;9.188;2023-01-16T05:38:41;1.47;;;1.30;;
35578;SDS011;21687;48.900;9.188;2023-01-16T05:41:08;4.60;;;1.40;;
35578;SDS011;21687;48.900;9.188;2023-01-16T05:43:34;2.17;;;1.50;;
35578;SDS011;21687;48.900;9.188;2023-01-16T05:46:00;1.93;;;1.40;;
35578;SDS011;21687;48.900;9.188;2023-01-16T05:48:28;2.80;;;1.47;;
35578;SDS011;21687;48.900;9.188;2023-01-16T05:50:56;1.80;;;1.43;;
35578;SDS011;21687;48.900;9.188;2023-01-16T05:53:25;5.57;;;1.67;;
35578;SDS011;21687;48.900;9.188;2023-01-16T05:55:53;2.00;;;1.50;;
35578;SDS011;21687;48.900;9.188;2023-01-16T05:58:19;1.60;;;1.50;;
35578;SDS011;21687;48.900;9.188;2023-01-16T06:00:46;1.67;;;1.40;;
35578;SDS011;21687;48.900;9.188;2023-01-16T06:03:12;1.57;;;1.33;;
35578;SDS011;21687;48.900;9.188;2023-01-16T06:05:40;2.93;;;1.40;;
35578;SDS011;21687;48.900;9.188;2023-01-16T06:08:07;2.83;;;1.40;;
35578;SDS011;21687;48.900;9.188;2023-01-16T06:10:33;4.40;;;1.50;;
35578;SDS011;21687;48.900;9.188;2023-01-16T06:13:01;2.83;;;1.50;;
35578;SDS011;21687;48.900;9.188;2023-01-16T06:15:30;5.30;;;1.63;;
35578;SDS011;21687;48.900;9.188;2023-01-16T06:17:57;2.33;;;1.50;;
35578;SDS011;21687;48.900;9.188;2023-01-16T06:20:23;6.27;;;1.60;;
35578;SDS011;21687;48.900;9.188;2023-01-16T06:22:49;6.20;;;1.60;;
35578;SDS011;21687;48.900;9.188;2023-01-16T06:25:15;2.03;;;1.40;;
35578;SDS011;21687;48.900;9.188;2023-01-16T06:27:42;4.03;;;1.20;;
35578;SDS011;21687;48.900;9.188;2023-01-16T06:30:12;2.30;;;1.33;;
35578;SDS011;21687;48.900;9.188;2023-01-16T06:32:38;3.03;;;1.30;;
35578;SDS011;21687;48.900;9.188;2023-01-16T06:35:05;2.03;;;1.13;;
35578;SDS011;21687;48.900;9.188;2023-01-16T06:37:31;2.67;;;1.40;;
35578;SDS011;21687;48.900;9.188;2023-01-16T06:39:57;2.63;;;1.37;;
35578;SDS011;21687;48.900;9.188;2023-01-16T06:42:25;1.57;;;1.20;;
35578;SDS011;21687;48.900;9.188;2023-01-16T06:44:51;1.30;;;1.20;;
35578;SDS011;21687;48.900;9.188;2023-01-16T06:47:17;4.27;;;1.50;;
35578;SDS011;21687;48.900;9.188;2023-01-16T06:49:44;4.90;;;1.67;;
35578;SDS011;21687;48.900;9.188;2023-01-16T06:52:10;2.63;;;1.40;;
35578;SDS011;21687;48.900;9.188;2023-01-16T06:54:36;3.40;;;1.50;;
35578;SDS011;21687;48.900;9.188;2023-01-16T06:57:02;1.63;;;1.37;;
35578;SDS011;21687;48.900;9.188;2023-01-16T06:59:29;1.67;;;1.40;;
35578;SDS011;21687;48.900;9.188;2023-01-16T07:01:55;1.93;;;1.40;;
35578;SDS011;21687;48.900;9.188;2023-01-16T07:04:21;4.23;;;1.23;;
35578;SDS011;21687;48.900;9.188;2023-01-16T07:06:48;1.73;;;1.47;;
35578;SDS011;21687;48.900;9.188;2023-01-16T07:09:17;4.00;;;1.63;;
35578;SDS011;21687;48.900;9.188;2023-01-16T07:11:44;2.27;;;1.37;;
35578;SDS011;21687;48.900;9.188;2023-01-16T07:14:11;4.30;;;1.50;;
35578;SDS011;21687;48.900;9.188;2023-01-16T07:16:56;4.33;;;1.50;;
35578;SDS011;21687;48.900;9.188;2023-01-16T07:19:41;3.53;;;1.63;;
35578;SDS011;21687;48.900;9.188;2023-01-16T07:22:26;2.83;;;1.50;;
35578;SDS011;21687;48.900;9.188;2023-01-16T07:25:07;2.30;;;1.43;;
35578;SDS011;21687;48.900;9.188;2023-01-16T07:27:38;3.20;;;1.47;;
35578;SDS011;21687;48.900;9.188;2023-01-16T07:30:06;2.57;;;1.40;;
35578;SDS011;21687;48.900;9.188;2023-01-16T07:32:33;3.00;;;1.80;;
35578;SDS011;21687;48.900;9.188;2023-01-16T07:34:59;4.17;;;1.70;;
35578;SDS011;21687;48.900;9.188;2023-01-16T07:37:26;1.33;;;1.23;;
35578;SDS011;21687;48.900;9.188;2023-01-16T07:39:52;2.40;;;1.50;;
35578;SDS011;21687;48.900;9.188;2023-01-16T07:42:19;5.63;;;1.50;;
35578;SDS011;21687;48.900;9.188;2023-01-16T07:44:45;2.73;;;1.33;;
35578;SDS011;21687;48.900;9.188;2023-01-16T07:47:11;1.40;;;1.30;;
35578;SDS011;21687;48.900;9.188;2023-01-16T07:49:38;3.23;;;1.43;;
35578;SDS011;21687;48.900;9.188;2023-01-16T07:52:04;2.10;;;1.40;;
35578;SDS011;21687;48.900;9.188;2023-01-16T07:54:30;3.60;;;1.30;;
35578;SDS011;21687;48.900;9.188;2023-01-16T07:57:00;2.53;;;1.60;;
35578;SDS011;21687;48.900;9.188;2023-01-16T07:59:27;3.07;;;1.40;;
35578;SDS011;21687;48.900;9.188;2023-01-16T08:01:53;2.10;;;1.33;;
35578;SDS011;21687;48.900;9.188;2023-01-16T08:04:19;2.13;;;1.50;;
35578;SDS011;21687;48.900;9.188;2023-01-16T08:06:46;2.40;;;1.57;;
35578;SDS011;21687;48.900;9.188;2023-01-16T08:09:12;2.87;;;1.73;;
35578;SDS011;21687;48.900;9.188;2023-01-16T08:11:39;3.23;;;1.40;;
35578;SDS011;21687;48.900;9.188;2023-01-16T08:14:06;2.00;;;1.60;;
35578;SDS011;21687;48.900;9.188;2023-01-16T08:16:33;1.87;;;1.40;;
35578;SDS011;21687;48.900;9.188;2023-01-16T08:18:59;1.50;;;1.40;;
35578;SDS011;21687;48.900;9.188;2023-01-16T08:21:26;2.30;;;1.20;;
35578;SDS011;21687;48.900;9.188;2023-01-16T08:23:52;3.50;;;1.60;;
35578;SDS011;21687;48.900;9.188;2023-01-16T08:26:18;2.00;;;1.50;;
35578;SDS011;21687;48.900;9.188;2023-01-16T08:28:45;3.37;;;1.30;;
35578;SDS011;21687;48.900;9.188;2023-01-16T08:31:11;3.03;;;1.60;;
35578;SDS011;21687;48.900;9.188;2023-01-16T08:33:39;3.30;;;1.60;;
35578;SDS011;21687;48.900;9.188;2023-01-16T08:36:07;1.90;;;1.53;;
35578;SDS011;21687;48.900;9.188;2023-01-16T08:38:36;1.73;;;1.63;;
35578;SDS011;21687;48.900;9.188;2023-01-16T08:41:02;2.47;;;1.53;;
35578;SDS011;21687;48.900;9.188;2023-01-16T08:43:29;2.80;;;1.60;;
35578;SDS011;21687;48.900;9.188;2023-01-16T08:46:19;1.83;;;1.60;;
35578;SDS011;21687;48.900;9.188;2023-01-16T08:49:10;2.83;;;1.50;;
35578;SDS011;21687;48.900;9.188;2023-01-16T08:51:57;1.60;;;1.40;;
35578;SDS011;21687;48.900;9.188;2023-01-16T08:54:24;1.80;;;1.10;;
35578;SDS011;21687;48.900;9.188;2023-01-16T08:56:51;1.30;;;1.20;;
35578;SDS011;21687;48.900;9.188;2023-01-16T08:59:17;2.23;;;1.30;;
35578;SDS011;21687;48.900;9.188;2023-01-16T09:01:43;1.30;;;1.20;;
35578;SDS011;21687;48.900;9.188;2023-01-16T09:04:09;2.03;;;1.00;;
35578;SDS011;21687;48.900;9.188;2023-01-16T09:06:36;1.40;;;1.10;;
35578;SDS011;21687;48.900;9.188;2023-01-16T09:09:06;1.60;;;1.23;;
35578;SDS011;21687;48.900;9.188;2023-01-16T09:11:33;1.00;;;0.90;;
35578;SDS011;21687;48.900;9.188;2023-01-16T09:14:19;1.40;;;1.03;;
35578;SDS011;21687;48.900;9.188;2023-01-16T09:16:45;1.20;;;1.10;;
35578;SDS011;21687;48.900;9.188;2023-01-16T09:19:12;1.53;;;1.20;;
35578;SDS011;21687;48.900;9.188;2023-01-16T09:21:38;3.83;;;1.60;;
35578;SDS011;21687;48.900;9.188;2023-01-16T09:24:04;3.07;;;1.40;;
35578;SDS011;21687;48.900;9.188;2023-01-16T09:26:31;3.40;;;1.40;;
35578;SDS011;21687;48.900;9.188;2023-01-16T09:28:57;1.57;;;1.47;;
35578;SDS011;21687;48.900;9.188;2023-01-16T09:31:23;4.00;;;1.30;;
35578;SDS011;21687;48.900;9.188;2023-01-16T09:33:49;1.67;;;1.30;;
35578;SDS011;21687;48.900;9.188;2023-01-16T09:36:17;1.83;;;1.20;;
35578;SDS011;21687;48.900;9.188;2023-01-16T09:38:43;1.63;;;1.20;;
35578;SDS011;21687;48.900;9.188;2023-01-16T09:41:14;1.00;;;1.00;;
35578;SDS011;21687;48.900;9.188;2023-01-16T09:44:02;0.93;;;0.93;;
35578;SDS011;21687;48.900;9.188;2023-01-16T09:46:34;3.60;;;1.37;;
35578;SDS011;21687;48.900;9.188;2023-01-16T09:51:56;1.67;;;1.17;;
35578;SDS011;21687;48.900;9.188;2023-01-16T09:54:49;4.13;;;1.20;;
35578;SDS011;21687;48.900;9.188;2023-01-16T09:57:38;1.27;;;1.10;;
35578;SDS011;21687;48.900;9.188;2023-01-16T10:00:26;3.87;;;1.70;;
35578;SDS011;21687;48.900;9.188;2023-01-16T10:02:55;1.13;;;1.03;;
35578;SDS011;21687;48.900;9.188;2023-01-16T10:05:23;1.57;;;1.20;;
35578;SDS011;21687;48.900;9.188;2023-01-16T10:10:48;2.10;;;1.40;;
35578;SDS011;21687;48.900;9.188;2023-01-16T10:16:33;1.30;;;1.03;;
35578;SDS011;21687;48.900;9.188;2023-01-16T10:29:44;1.13;;;0.90;;
35578;SDS011;21687;48.900;9.188;2023-01-16T10:37:19;1.53;;;0.90;;
35578;SDS011;21687;48.900;9.188;2023-01-16T10:39:46;1.13;;;0.80;;
35578;SDS011;21687;48.900;9.188;2023-01-16T10:42:16;1.30;;;1.20;;
35578;SDS011;21687;48.900;9.188;2023-01-16T10:47:57;1.03;;;1.00;;
35578;SDS011;21687;48.900;9.188;2023-01-16T10:50:43;1.20;;;1.00;;
35578;SDS011;21687;48.900;9.188;2023-01-16T10:53:10;0.90;;;0.90;;
35578;SDS011;21687;48.900;9.188;2023-01-16T10:55:41;1.37;;;1.17;;
35578;SDS011;21687;48.900;9.188;2023-01-16T10:58:16;1.20;;;1.10;;
35578;SDS011;21687;48.900;9.188;2023-01-16T11:00:57;1.03;;;0.97;;
35578;SDS011;21687;48.900;9.188;2023-01-16T11:03:32;1.50;;;1.00;;
35578;SDS011;21687;48.900;9.188;2023-01-16T11:06:41;1.47;;;1.00;;
35578;SDS011;21687;48.900;9.188;2023-01-16T11:09:05;0.97;;;0.97;;
35578;SDS011;21687;48.900;9.188;2023-01-16T11:11:38;0.93;;;0.87;;
35578;SDS011;21687;48.900;9.188;2023-01-16T11:14:28;1.10;;;1.00;;
35578;SDS011;21687;48.900;9.188;2023-01-16T11:17:35;0.97;;;0.87;;
35578;SDS011;21687;48.900;9.188;2023-01-16T11:20:25;0.90;;;0.90;;
35578;SDS011;21687;48.900;9.188;2023-01-16T11:25:43;1.20;;;1.00;;
35578;SDS011;21687;48.900;9.188;2023-01-16T11:28:13;0.93;;;0.93;;
35578;SDS011;21687;48.900;9.188;2023-01-16T11:30:48;3.67;;;1.10;;
35578;SDS011;21687;48.900;9.188;2023-01-16T11:33:20;1.00;;;0.90;;
35578;SDS011;21687;48.900;9.188;2023-01-16T11:35:58;1.13;;;1.00;;
35578;SDS011;21687;48.900;9.188;2023-01-16T11:38:27;3.03;;;1.00;;
35578;SDS011;21687;48.900;9.188;2023-01-16T11:40:58;3.23;;;1.00;;
35578;SDS011;21687;48.900;9.188;2023-01-16T11:43:26;1.10;;;1.00;;
35578;SDS011;21687;48.900;9.188;2023-01-16T11:46:25;1.57;;;0.97;;
35578;SDS011;21687;48.900;9.188;2023-01-16T11:49:16;1.53;;;1.00;;
35578;SDS011;21687;48.900;9.188;2023-01-16T11:51:49;1.20;;;1.10;;
35578;SDS011;21687;48.900;9.188;2023-01-16T11:54:19;0.97;;;0.97;;
35578;SDS011;21687;48.900;9.188;2023-01-16T11:57:00;0.93;;;0.93;;
35578;SDS011;21687;48.900;9.188;2023-01-16T11:59:33;2.30;;;1.00;;
35578;SDS011;21687;48.900;9.188;2023-01-16T12:05:08;1.00;;;1.00;;
35578;SDS011;21687;48.900;9.188;2023-01-16T12:13:31;1.83;;;1.10;;
35578;SDS011;21687;48.900;9.188;2023-01-16T12:19:06;0.90;;;0.90;;
35578;SDS011;21687;48.900;9.188;2023-01-16T12:25:01;1.33;;;1.17;;
35578;SDS011;21687;48.900;9.188;2023-01-16T12:31:05;1.17;;;1.00;;
35578;SDS011;21687;48.900;9.188;2023-01-16T12:39:52;8.80;;;4.30;;
35578;SDS011;21687;48.900;9.188;2023-01-16T12:45:42;14.90;;;6.70;;
35578;SDS011;21687;48.900;9.188;2023-01-16T12:50:59;33.73;;;11.33;;
35578;SDS011;21687;48.900;9.188;2023-01-16T12:56:33;57.67;;;18.87;;
35578;SDS011;21687;48.900;9.188;2023-01-16T12:59:06;54.97;;;16.47;;
35578;SDS011;21687;48.900;9.188;2023-01-16T13:01:41;26.00;;;9.20;;
35578;SDS011;21687;48.900;9.188;2023-01-16T13:04:12;7.87;;;3.37;;
35578;SDS011;21687;48.900;9.188;2023-01-16T13:06:50;24.40;;;7.93;;
35578;SDS011;21687;48.900;9.188;2023-01-16T13:12:03;4.17;;;2.57;;
35578;SDS011;21687;48.900;9.188;2023-01-16T13:14:50;3.37;;;3.07;;
35578;SDS011;21687;48.900;9.188;2023-01-16T13:17:24;2.87;;;1.70;;
35578;SDS011;21687;48.900;9.188;2023-01-16T13:19:58;1.30;;;1.20;;
35578;SDS011;21687;48.900;9.188;2023-01-16T13:22:29;1.40;;;1.30;;
35578;SDS011;21687;48.900;9.188;2023-01-16T13:25:15;1.10;;;1.10;;
35578;SDS011;21687;48.900;9.188;2023-01-16T13:27:55;0.80;;;0.80;;
35578;SDS011;21687;48.900;9.188;2023-01-16T13:30:29;0.83;;;0.83;;
35578;SDS011;21687;48.900;9.188;2023-01-16T13:38:02;0.83;;;0.80;;
35578;SDS011;21687;48.900;9.188;2023-01-16T13:40:53;1.13;;;1.03;;
35578;SDS011;21687;48.900;9.188;2023-01-16T13:43:32;1.27;;;1.07;;
35578;SDS011;21687;48.900;9.188;2023-01-16T13:46:22;0.80;;;0.80;;
35578;SDS011;21687;48.900;9.188;2023-01-16T13:48:50;0.93;;;0.83;;
35578;SDS011;21687;48.900;9.188;2023-01-16T13:51:18;1.20;;;1.10;;
35578;SDS011;21687;48.900;9.188;2023-01-16T13:53:56;1.37;;;0.93;;
35578;SDS011;21687;48.900;9.188;2023-01-16T13:56:28;0.90;;;0.90;;
35578;SDS011;21687;48.900;9.188;2023-01-16T13:58:58;0.83;;;0.83;;
35578;SDS011;21687;48.900;9.188;2023-01-16T14:06:47;1.27;;;1.17;;
35578;SDS011;21687;48.900;9.188;2023-01-16T14:15:25;0.80;;;0.80;;
35578;SDS011;21687;48.900;9.188;2023-01-16T14:18:41;1.30;;;0.73;;
35578;SDS011;21687;48.900;9.188;2023-01-16T14:24:05;1.83;;;0.70;;
35578;SDS011;21687;48.900;9.188;2023-01-16T14:26:42;1.13;;;0.90;;
35578;SDS011;21687;48.900;9.188;2023-01-16T14:32:04;0.63;;;0.63;;
35578;SDS011;21687;48.900;9.188;2023-01-16T14:37:24;0.70;;;0.70;;
35578;SDS011;21687;48.900;9.188;2023-01-16T14:40:02;0.70;;;0.70;;
35578;SDS011;21687;48.900;9.188;2023-01-16T14:42:39;0.60;;;0.60;;
35578;SDS011;21687;48.900;9.188;2023-01-16T14:45:37;0.73;;;0.73;;
35578;SDS011;21687;48.900;9.188;2023-01-16T14:54:09;1.03;;;0.70;;
35578;SDS011;21687;48.900;9.188;2023-01-16T14:57:19;1.57;;;0.90;;
35578;SDS011;21687;48.900;9.188;2023-01-16T14:59:56;0.70;;;0.70;;
35578;SDS011;21687;48.900;9.188;2023-01-16T15:02:35;0.63;;;0.63;;
35578;SDS011;21687;48.900;9.188;2023-01-16T15:05:07;0.60;;;0.60;;
35578;SDS011;21687;48.900;9.188;2023-01-16T15:07:50;0.70;;;0.70;;
35578;SDS011;21687;48.900;9.188;2023-01-16T15:10:27;0.73;;;0.73;;
35578;SDS011;21687;48.900;9.188;2023-01-16T15:16:04;1.23;;;1.13;;
35578;SDS011;21687;48.900;9.188;2023-01-16T15:18:39;1.47;;;1.10;;
35578;SDS011;21687;48.900;9.188;2023-01-16T15:21:26;1.20;;;1.10;;
35578;SDS011;21687;48.900;9.188;2023-01-16T15:24:14;0.87;;;0.87;;
35578;SDS011;21687;48.900;9.188;2023-01-16T15:29:22;1.60;;;1.37;;
35578;SDS011;21687;48.900;9.188;2023-01-16T15:32:13;0.90;;;0.90;;
35578;SDS011;21687;48.900;9.188;2023-01-16T15:34:46;1.17;;;0.90;;
35578;SDS011;21687;48.900;9.188;2023-01-16T15:37:21;2.30;;;1.10;;
35578;SDS011;21687;48.900;9.188;2023-01-16T15:39:52;6.37;;;1.10;;
35578;SDS011;21687;48.900;9.188;2023-01-16T15:42:19;1.00;;;1.00;;
35578;SDS011;21687;48.900;9.188;2023-01-16T15:48:26;0.70;;;0.70;;
35578;SDS011;21687;48.900;9.188;2023-01-16T15:51:08;0.60;;;0.60;;
35578;SDS011;21687;48.900;9.188;2023-01-16T15:53:37;1.30;;;1.20;;
35578;SDS011;21687;48.900;9.188;2023-01-16T15:56:20;1.97;;;1.10;;
35578;SDS011;21687;48.900;9.188;2023-01-16T15:59:04;1.60;;;1.07;;
35578;SDS011;21687;48.900;9.188;2023-01-16T16:01:45;1.07;;;1.07;;
35578;SDS011;21687;48.900;9.188;2023-01-16T16:04:11;2.93;;;1.07;;
35578;SDS011;21687;48.900;9.188;2023-01-16T16:06:38;3.03;;;1.00;;
35578;SDS011;21687;48.900;9.188;2023-01-16T16:09:05;1.03;;;1.03;;
35578;SDS011;21687;48.900;9.188;2023-01-16T16:11:41;1.40;;;1.03;;
35578;SDS011;21687;48.900;9.188;2023-01-16T16:20:26;1.10;;;1.00;;
35578;SDS011;21687;48.900;9.188;2023-01-16T16:25:50;1.00;;;0.90;;
35578;SDS011;21687;48.900;9.188;2023-01-16T16:28:22;1.27;;;1.10;;
35578;SDS011;21687;48.900;9.188;2023-01-16T16:31:00;1.10;;;1.10;;
35578;SDS011;21687;48.900;9.188;2023-01-16T16:33:37;1.10;;;1.00;;
35578;SDS011;21687;48.900;9.188;2023-01-16T16:36:03;1.50;;;1.17;;
35578;SDS011;21687;48.900;9.188;2023-01-16T16:38:31;1.83;;;1.40;;
35578;SDS011;21687;48.900;9.188;2023-01-16T16:44:24;1.00;;;1.00;;
35578;SDS011;21687;48.900;9.188;2023-01-16T16:46:58;2.17;;;1.10;;
35578;SDS011;21687;48.900;9.188;2023-01-16T16:51:52;1.73;;;1.37;;
35578;SDS011;21687;48.900;9.188;2023-01-16T16:54:18;1.50;;;1.33;;
35578;SDS011;21687;48.900;9.188;2023-01-16T16:56:56;1.70;;;1.47;;
35578;SDS011;21687;48.900;9.188;2023-01-16T16:59:24;0.90;;;0.90;;
35578;SDS011;21687;48.900;9.188;2023-01-16T17:01:56;1.57;;;1.20;;
35578;SDS011;21687;48.900;9.188;2023-01-16T17:04:29;1.20;;;1.10;;
35578;SDS011;21687;48.900;9.188;2023-01-16T17:06:55;1.70;;;1.60;;
35578;SDS011;21687;48.900;9.188;2023-01-16T17:09:24;1.77;;;1.40;;
35578;SDS011;21687;48.900;9.188;2023-01-16T17:11:51;2.80;;;1.60;;
35578;SDS011;21687;48.900;9.188;2023-01-16T17:14:17;2.83;;;1.73;;
35578;SDS011;21687;48.900;9.188;2023-01-16T17:16:43;2.67;;;1.40;;
35578;SDS011;21687;48.900;9.188;2023-01-16T17:19:22;1.90;;;1.30;;
35578;SDS011;21687;48.900;9.188;2023-01-16T17:21:56;1.10;;;1.10;;
35578;SDS011;21687;48.900;9.188;2023-01-16T17:24:22;4.90;;;2.20;;
35578;SDS011;21687;48.900;9.188;2023-01-16T17:26:48;2.37;;;1.70;;
35578;SDS011;21687;48.900;9.188;2023-01-16T17:29:15;2.33;;;1.53;;
35578;SDS011;21687;48.900;9.188;2023-01-16T17:31:42;2.50;;;1.40;;
35578;SDS011;21687;48.900;9.188;2023-01-16T17:34:13;1.53;;;1.40;;
35578;SDS011;21687;48.900;9.188;2023-01-16T17:36:40;3.43;;;1.60;;
35578;SDS011;21687;48.900;9.188;2023-01-16T17:39:07;1.50;;;1.40;;
35578;SDS011;21687;48.900;9.188;2023-01-16T17:41:37;1.43;;;1.33;;
35578;SDS011;21687;48.900;9.188;2023-01-16T17:44:16;1.63;;;1.40;;
35578;SDS011;21687;48.900;9.188;2023-01-16T17:47:03;1.67;;;1.57;;